createdAt,value
2019-03-24T00:02:32.535Z,26.68
2019-03-24T00:05:07.360Z,26.68
2019-03-24T00:07:41.968Z,26.70
2019-03-24T00:10:16.570Z,26.67
2019-03-24T00:12:51.270Z,26.65
2019-03-24T00:15:26.755Z,26.67
2019-03-24T00:18:01.503Z,26.66
2019-03-24T00:20:36.020Z,26.65
2019-03-24T00:23:10.643Z,26.66
2019-03-24T00:25:45.332Z,26.64
2019-03-24T00:28:20.031Z,26.65
2019-03-24T00:30:54.844Z,26.64
2019-03-24T00:33:29.441Z,26.62
2019-03-24T00:36:04.154Z,26.62
2019-03-24T00:38:38.578Z,26.61
2019-03-24T00:41:13.217Z,26.59
2019-03-24T00:43:47.600Z,26.60
2019-03-24T00:46:22.098Z,26.60
2019-03-24T00:48:56.850Z,26.60
2019-03-24T00:51:31.297Z,26.58
2019-03-24T00:54:05.950Z,26.58
2019-03-24T00:56:40.566Z,26.58
2019-03-24T00:59:15.217Z,26.57
2019-03-24T01:01:49.607Z,26.58
2019-03-24T01:04:24.045Z,26.57
2019-03-24T01:06:58.757Z,26.56
2019-03-24T01:09:33.366Z,26.56
2019-03-24T01:12:08.128Z,26.55
2019-03-24T01:14:43.255Z,26.53
2019-03-24T01:17:17.842Z,26.55
2019-03-24T01:19:52.404Z,26.54
2019-03-24T01:22:26.862Z,26.54
2019-03-24T01:25:01.109Z,26.53
2019-03-24T01:27:35.656Z,26.54
2019-03-24T01:30:10.835Z,26.55
2019-03-24T01:32:45.141Z,26.54
2019-03-24T01:35:19.604Z,26.54
2019-03-24T01:37:53.921Z,26.55
2019-03-24T01:40:28.414Z,26.56
2019-03-24T01:43:02.803Z,26.57
2019-03-24T01:45:38.936Z,26.56
2019-03-24T01:48:13.593Z,26.56
2019-03-24T01:50:48.173Z,26.56
2019-03-24T01:53:22.798Z,26.55
2019-03-24T01:55:57.414Z,26.56
2019-03-24T01:58:32.152Z,26.56
2019-03-24T02:01:06.893Z,26.56
2019-03-24T02:03:41.375Z,26.56
2019-03-24T02:06:16.019Z,26.56
2019-03-24T02:08:50.630Z,26.57
2019-03-24T02:11:25.195Z,26.58
2019-03-24T02:13:59.879Z,26.58
2019-03-24T02:16:35.171Z,26.56
2019-03-24T02:19:09.744Z,26.56
2019-03-24T02:21:44.427Z,26.55
2019-03-24T02:24:18.762Z,26.55
2019-03-24T02:26:53.503Z,26.53
2019-03-24T02:29:29.009Z,26.54
2019-03-24T02:32:03.773Z,26.55
2019-03-24T02:34:38.186Z,26.54
2019-03-24T02:37:12.729Z,26.54
2019-03-24T02:39:47.501Z,26.53
2019-03-24T02:42:22.256Z,26.53
2019-03-24T02:44:56.805Z,26.52
2019-03-24T02:47:32.280Z,26.52
2019-03-24T02:50:07.128Z,26.52
2019-03-24T02:52:41.506Z,26.52
2019-03-24T02:55:16.179Z,26.51
2019-03-24T02:57:50.758Z,26.49
2019-03-24T03:00:25.389Z,26.49
2019-03-24T03:03:00.073Z,26.50
2019-03-24T03:05:34.473Z,26.50
2019-03-24T03:08:09.141Z,26.49
2019-03-24T03:10:43.592Z,26.49
2019-03-24T03:13:19.310Z,26.48
2019-03-24T03:15:53.822Z,26.48
2019-03-24T03:18:28.080Z,26.46
2019-03-24T03:21:02.547Z,26.48
2019-03-24T03:23:37.137Z,26.47
2019-03-24T03:26:11.635Z,26.47
2019-03-24T03:28:46.319Z,26.45
2019-03-24T03:31:20.716Z,26.45
2019-03-24T03:33:55.201Z,26.45
2019-03-24T03:36:29.853Z,26.44
2019-03-24T03:39:05.423Z,26.43
2019-03-24T03:41:40.035Z,26.44
2019-03-24T03:44:14.474Z,26.44
2019-03-24T03:46:52.994Z,26.44
2019-03-24T03:49:25.530Z,26.43
2019-03-24T03:52:00.230Z,26.42
2019-03-24T03:54:34.899Z,26.42
2019-03-24T03:57:09.599Z,26.42
2019-03-24T03:59:44.197Z,26.41
2019-03-24T04:02:18.779Z,26.42
2019-03-24T04:04:53.504Z,26.40
2019-03-24T04:07:27.928Z,26.41
2019-03-24T04:10:02.352Z,26.40
2019-03-24T04:12:36.744Z,26.40
2019-03-24T04:15:12.471Z,26.39
2019-03-24T04:17:46.981Z,26.39
2019-03-24T04:20:21.556Z,26.39
2019-03-24T04:22:56.223Z,26.38
2019-03-24T04:25:30.827Z,26.38
2019-03-24T04:28:05.625Z,26.39
2019-03-24T04:30:40.053Z,26.38
2019-03-24T04:33:14.491Z,26.38
2019-03-24T04:35:48.944Z,26.39
2019-03-24T04:38:23.326Z,26.39
2019-03-24T04:40:58.135Z,26.39
2019-03-24T04:43:32.565Z,26.39
2019-03-24T04:46:07.693Z,26.38
2019-03-24T04:48:41.999Z,26.38
2019-03-24T04:51:16.681Z,26.36
2019-03-24T04:53:51.416Z,26.38
2019-03-24T04:56:26.206Z,26.37
2019-03-24T04:59:00.837Z,26.36
2019-03-24T05:01:35.265Z,26.36
2019-03-24T05:04:09.863Z,26.35
2019-03-24T05:06:45.057Z,26.36
2019-03-24T05:09:20.557Z,26.37
2019-03-24T05:11:54.874Z,26.36
2019-03-24T05:14:29.494Z,26.36
2019-03-24T05:17:04.056Z,26.35
2019-03-24T05:19:38.865Z,26.36
2019-03-24T05:22:13.682Z,26.37
2019-03-24T05:24:48.074Z,26.36
2019-03-24T05:27:22.602Z,26.37
2019-03-24T05:29:57.319Z,26.36
2019-03-24T05:32:31.603Z,26.38
2019-03-24T05:35:06.492Z,26.36
2019-03-24T05:37:41.245Z,26.36
2019-03-24T05:40:15.674Z,26.36
2019-03-24T05:42:50.295Z,26.36
2019-03-24T05:45:24.977Z,26.35
2019-03-24T05:47:59.601Z,26.35
2019-03-24T05:50:34.183Z,26.35
2019-03-24T05:53:08.849Z,26.36
2019-03-24T05:55:43.543Z,26.36
2019-03-24T05:58:17.930Z,26.36
2019-03-24T06:00:52.412Z,26.36
2019-03-24T06:03:26.770Z,26.36
2019-03-24T06:06:01.142Z,26.36
2019-03-24T06:08:35.894Z,26.36
2019-03-24T06:11:10.981Z,26.36
2019-03-24T06:13:45.469Z,26.37
2019-03-24T06:16:20.077Z,26.36
2019-03-24T06:18:54.906Z,26.35
2019-03-24T06:21:29.548Z,26.36
2019-03-24T06:24:04.239Z,26.36
2019-03-24T06:26:38.807Z,26.37
2019-03-24T06:29:13.420Z,26.38
2019-03-24T06:31:47.857Z,26.37
2019-03-24T06:34:22.279Z,26.38
2019-03-24T06:36:57.872Z,26.38
2019-03-24T06:39:32.559Z,26.38
2019-03-24T06:42:07.166Z,26.38
2019-03-24T06:44:42.083Z,26.38
2019-03-24T06:47:16.404Z,26.37
2019-03-24T06:49:51.223Z,26.38
2019-03-24T06:52:25.729Z,26.38
2019-03-24T06:55:00.452Z,26.38
2019-03-24T06:57:35.114Z,26.39
2019-03-24T07:00:10.322Z,26.39
2019-03-24T07:02:44.914Z,26.38
2019-03-24T07:05:19.670Z,26.39
2019-03-24T07:07:54.563Z,26.38
2019-03-24T07:10:29.435Z,26.39
2019-03-24T07:13:04.107Z,26.38
2019-03-24T07:15:39.028Z,26.39
2019-03-24T07:18:13.608Z,26.39
2019-03-24T07:20:48.240Z,26.40
2019-03-24T07:23:22.613Z,26.39
2019-03-24T07:25:57.095Z,26.40
2019-03-24T07:28:31.563Z,26.40
2019-03-24T07:31:06.366Z,26.41
2019-03-24T07:33:41.326Z,26.41
2019-03-24T07:36:15.865Z,26.41
2019-03-24T07:38:50.492Z,26.42
2019-03-24T07:41:25.131Z,26.43
2019-03-24T07:43:59.840Z,26.43
2019-03-24T07:46:34.349Z,26.44
2019-03-24T07:49:09.149Z,26.44
2019-03-24T07:51:43.736Z,26.45
2019-03-24T07:54:18.429Z,26.45
2019-03-24T07:56:52.929Z,26.45
2019-03-24T07:59:29.059Z,26.46
2019-03-24T08:02:03.566Z,26.46
2019-03-24T08:04:38.313Z,26.48
2019-03-24T08:07:12.711Z,26.48
2019-03-24T08:09:48.148Z,26.48
2019-03-24T08:12:22.578Z,26.48
2019-03-24T08:14:59.874Z,26.49
2019-03-24T08:17:33.949Z,26.50
2019-03-24T08:20:08.869Z,26.50
2019-03-24T08:22:43.701Z,26.50
2019-03-24T08:25:19.255Z,26.51
2019-03-24T08:27:53.857Z,26.52
2019-03-24T08:30:46.371Z,26.53
2019-03-24T08:33:20.971Z,26.53
2019-03-24T08:35:55.713Z,26.53
2019-03-24T08:38:30.279Z,26.54
2019-03-24T08:41:05.121Z,26.55
2019-03-24T08:43:39.576Z,26.56
2019-03-24T08:46:13.960Z,26.56
2019-03-24T08:48:49.393Z,26.57
2019-03-24T08:51:23.859Z,26.57
2019-03-24T08:53:58.211Z,26.59
2019-03-24T08:56:32.701Z,26.58
2019-03-24T08:59:07.184Z,26.59
2019-03-24T09:01:41.872Z,26.59
2019-03-24T09:04:16.407Z,26.61
2019-03-24T09:06:50.990Z,26.62
2019-03-24T09:09:25.374Z,26.61
2019-03-24T09:12:00.062Z,26.62
2019-03-24T09:14:34.418Z,26.62
2019-03-24T09:17:08.973Z,26.63
2019-03-24T09:19:43.450Z,26.64
2019-03-24T09:22:18.396Z,26.65
2019-03-24T09:24:53.244Z,26.65
2019-03-24T09:27:28.206Z,26.66
2019-03-24T09:30:03.377Z,26.67
2019-03-24T09:32:38.620Z,26.68
2019-03-24T09:35:13.457Z,26.69
2019-03-24T09:37:48.318Z,26.68
2019-03-24T09:40:29.581Z,26.69
2019-03-24T09:43:05.503Z,26.69
2019-03-24T09:45:40.085Z,26.71
2019-03-24T09:48:14.879Z,26.71
2019-03-24T09:50:49.634Z,26.71
2019-03-24T09:53:25.234Z,26.72
2019-03-24T09:56:00.281Z,26.72
2019-03-24T09:58:35.616Z,26.73
2019-03-24T10:01:11.391Z,26.73
2019-03-24T10:03:46.355Z,26.74
2019-03-24T10:06:21.327Z,26.75
2019-03-24T10:08:56.241Z,26.75
2019-03-24T10:11:31.034Z,26.75
2019-03-24T10:14:05.898Z,26.76
2019-03-24T10:16:40.869Z,26.77
2019-03-24T10:19:15.722Z,26.77
2019-03-24T10:21:50.217Z,26.78
2019-03-24T10:24:24.526Z,26.78
2019-03-24T10:26:59.063Z,26.79
2019-03-24T10:29:33.754Z,26.80
2019-03-24T10:32:08.492Z,26.80
2019-03-24T10:34:42.956Z,26.81
2019-03-24T10:37:17.773Z,26.82
2019-03-24T10:39:53.476Z,26.82
2019-03-24T10:42:28.112Z,26.83
2019-03-24T10:45:02.686Z,26.84
2019-03-24T10:47:37.354Z,26.84
2019-03-24T10:50:14.453Z,26.85
2019-03-24T10:52:49.554Z,26.86
2019-03-24T10:55:24.290Z,26.86
2019-03-24T10:57:58.956Z,26.87
2019-03-24T11:00:51.618Z,26.88
2019-03-24T11:03:24.203Z,26.89
2019-03-24T11:05:58.779Z,26.90
2019-03-24T11:08:33.549Z,26.90
2019-03-24T11:11:08.248Z,26.90
2019-03-24T11:13:42.793Z,26.92
2019-03-24T11:16:17.371Z,26.93
2019-03-24T11:18:51.891Z,26.92
2019-03-24T11:21:26.665Z,26.94
2019-03-24T11:24:01.161Z,26.95
2019-03-24T11:26:35.707Z,26.95
2019-03-24T11:29:10.170Z,26.96
2019-03-24T11:31:45.085Z,26.96
2019-03-24T11:34:19.646Z,26.97
2019-03-24T11:36:54.403Z,26.98
2019-03-24T11:39:29.864Z,26.98
2019-03-24T11:42:04.432Z,27.00
2019-03-24T11:44:39.046Z,27.01
2019-03-24T11:47:13.671Z,27.01
2019-03-24T11:49:49.207Z,27.02
2019-03-24T11:52:23.895Z,27.03
2019-03-24T11:54:58.600Z,27.04
2019-03-24T11:57:33.392Z,27.05
2019-03-24T12:00:08.923Z,27.06
2019-03-24T12:02:43.492Z,27.06
2019-03-24T12:05:17.946Z,27.07
2019-03-24T12:07:52.505Z,27.08
2019-03-24T12:10:27.012Z,27.09
2019-03-24T12:13:01.327Z,27.10
2019-03-24T12:15:35.776Z,27.11
2019-03-24T12:18:10.389Z,27.11
2019-03-24T12:20:45.175Z,27.12
2019-03-24T12:23:21.020Z,27.13
2019-03-24T12:25:55.849Z,27.14
2019-03-24T12:28:30.459Z,27.15
2019-03-24T12:31:05.326Z,27.15
2019-03-24T12:33:40.071Z,27.16
2019-03-24T12:36:14.596Z,27.17
2019-03-24T12:38:49.267Z,27.18
2019-03-24T12:41:23.691Z,27.19
2019-03-24T12:43:58.153Z,27.19
2019-03-24T12:46:32.669Z,27.20
2019-03-24T12:49:07.431Z,27.21
2019-03-24T12:51:42.008Z,27.22
2019-03-24T12:54:16.871Z,27.22
2019-03-24T12:56:51.654Z,27.23
2019-03-24T12:59:26.287Z,27.23
2019-03-24T13:02:00.788Z,27.24
2019-03-24T13:04:35.430Z,27.25
2019-03-24T13:07:10.011Z,27.26
2019-03-24T13:09:44.619Z,27.26
2019-03-24T13:12:19.031Z,27.28
2019-03-24T13:14:53.868Z,27.29
2019-03-24T13:17:28.386Z,27.29
2019-03-24T13:20:03.041Z,27.29
2019-03-24T13:22:37.358Z,27.31
2019-03-24T13:25:12.151Z,27.31
2019-03-24T13:27:46.571Z,27.32
2019-03-24T13:30:21.207Z,27.31
2019-03-24T13:32:55.895Z,27.33
2019-03-24T13:35:30.283Z,27.33
2019-03-24T13:38:04.716Z,27.36
2019-03-24T13:40:39.446Z,27.37
2019-03-24T13:43:14.000Z,27.35
2019-03-24T13:45:48.626Z,27.37
2019-03-24T13:48:23.014Z,27.38
2019-03-24T13:50:57.400Z,27.39
2019-03-24T13:53:32.063Z,27.40
2019-03-24T13:56:07.478Z,27.40
2019-03-24T13:58:42.030Z,27.41
2019-03-24T14:01:17.243Z,27.42
2019-03-24T14:03:51.857Z,27.43
2019-03-24T14:06:26.539Z,27.43
2019-03-24T14:09:01.211Z,27.43
2019-03-24T14:11:37.332Z,27.43
2019-03-24T14:14:11.895Z,27.45
2019-03-24T14:16:46.796Z,27.46
2019-03-24T14:19:21.450Z,27.46
2019-03-24T14:21:55.966Z,27.46
2019-03-24T14:24:30.584Z,27.46
2019-03-24T14:27:05.131Z,27.47
2019-03-24T14:29:39.734Z,27.48
2019-03-24T14:32:14.209Z,27.49
2019-03-24T14:34:48.852Z,27.49
2019-03-24T14:37:23.784Z,27.50
2019-03-24T14:39:58.264Z,27.51
2019-03-24T14:42:33.116Z,27.51
2019-03-24T14:45:08.369Z,27.51
2019-03-24T14:47:42.952Z,27.52
2019-03-24T14:50:17.848Z,27.54
2019-03-24T14:52:52.717Z,27.54
2019-03-24T14:55:27.436Z,27.54
2019-03-24T14:58:02.080Z,27.54
2019-03-24T15:00:41.385Z,27.56
2019-03-24T15:03:16.882Z,27.56
2019-03-24T15:05:51.686Z,27.56
2019-03-24T15:08:27.491Z,27.58
2019-03-24T15:11:02.322Z,27.57
2019-03-24T15:13:36.786Z,27.58
2019-03-24T15:16:11.624Z,27.59
2019-03-24T15:18:46.201Z,27.59
2019-03-24T15:21:20.786Z,27.59
2019-03-24T15:23:55.253Z,27.60
2019-03-24T15:26:30.016Z,27.61
2019-03-24T15:29:04.373Z,27.61
2019-03-24T15:31:38.786Z,27.61
2019-03-24T15:34:13.299Z,27.61
2019-03-24T15:36:47.629Z,27.62
2019-03-24T15:39:22.052Z,27.63
2019-03-24T15:41:56.575Z,27.62
2019-03-24T15:44:31.891Z,27.64
2019-03-24T15:47:06.440Z,27.64
2019-03-24T15:49:40.856Z,27.65
2019-03-24T15:52:15.349Z,27.64
2019-03-24T15:54:49.771Z,27.64
2019-03-24T15:57:24.319Z,27.64
2019-03-24T15:59:58.905Z,27.65
2019-03-24T16:02:33.487Z,27.65
2019-03-24T16:05:08.305Z,27.65
2019-03-24T16:07:42.766Z,27.67
2019-03-24T16:10:17.516Z,27.67
2019-03-24T16:12:52.250Z,27.67
2019-03-24T16:15:26.897Z,27.67
2019-03-24T16:18:01.731Z,27.67
2019-03-24T16:20:36.375Z,27.67
2019-03-24T16:23:10.898Z,27.67
2019-03-24T16:25:45.493Z,27.68
2019-03-24T16:28:19.986Z,27.68
2019-03-24T16:30:54.573Z,27.69
2019-03-24T16:33:30.117Z,27.68
2019-03-24T16:36:04.834Z,27.69
2019-03-24T16:38:48.540Z,27.69
2019-03-24T16:41:16.567Z,27.69
2019-03-24T16:43:51.167Z,27.70
2019-03-24T16:46:25.601Z,27.71
2019-03-24T16:48:59.969Z,27.69
2019-03-24T16:51:38.723Z,27.71
2019-03-24T16:54:11.069Z,27.72
2019-03-24T16:56:45.606Z,27.71
2019-03-24T16:59:20.019Z,27.72
2019-03-24T17:01:54.548Z,27.73
2019-03-24T17:04:29.076Z,27.72
2019-03-24T17:07:03.561Z,27.73
2019-03-24T17:09:38.042Z,27.73
2019-03-24T17:12:12.796Z,27.73
2019-03-24T17:14:47.585Z,27.74
2019-03-24T17:17:22.239Z,27.74
2019-03-24T17:19:56.703Z,27.73
2019-03-24T17:22:31.166Z,27.75
2019-03-24T17:25:05.844Z,27.74
2019-03-24T17:27:40.455Z,27.75
2019-03-24T17:30:16.315Z,27.75
2019-03-24T17:32:50.634Z,27.75
2019-03-24T17:35:25.334Z,27.75
2019-03-24T17:37:59.655Z,27.76
2019-03-24T17:40:38.863Z,27.76
2019-03-24T17:43:10.495Z,27.77
2019-03-24T17:45:45.029Z,27.77
2019-03-24T17:48:19.530Z,27.77
2019-03-24T17:50:54.176Z,27.78
2019-03-24T17:53:28.826Z,27.78
2019-03-24T17:56:03.584Z,27.79
2019-03-24T17:58:38.180Z,27.78
2019-03-24T18:01:13.615Z,27.79
2019-03-24T18:03:48.670Z,27.80
2019-03-24T18:06:23.091Z,27.80
2019-03-24T18:08:57.940Z,27.79
2019-03-24T18:11:32.262Z,27.82
2019-03-24T18:14:08.184Z,27.83
2019-03-24T18:16:42.757Z,27.83
2019-03-24T18:19:17.189Z,27.85
2019-03-24T18:21:52.730Z,27.84
2019-03-24T18:24:27.463Z,27.84
2019-03-24T18:27:02.004Z,27.85
2019-03-24T18:29:36.458Z,27.83
2019-03-24T18:32:10.921Z,27.88
2019-03-24T18:34:45.855Z,27.87
2019-03-24T18:37:20.464Z,27.87
2019-03-24T18:39:55.395Z,27.89
2019-03-24T18:42:29.806Z,27.89
2019-03-24T18:45:04.489Z,27.90
2019-03-24T18:47:39.452Z,27.89
2019-03-24T18:50:14.252Z,27.90
2019-03-24T18:52:50.189Z,27.90
2019-03-24T18:55:25.020Z,27.93
2019-03-24T18:57:59.795Z,27.91
2019-03-24T19:00:34.367Z,27.94
2019-03-24T19:03:09.067Z,27.92
2019-03-24T19:05:43.521Z,27.95
2019-03-24T19:08:18.158Z,27.96
2019-03-24T19:10:52.724Z,27.97
2019-03-24T19:13:27.395Z,27.97
2019-03-24T19:16:02.034Z,27.94
2019-03-24T19:18:36.641Z,27.96
2019-03-24T19:21:11.260Z,27.95
2019-03-24T19:23:45.997Z,27.97
2019-03-24T19:26:20.654Z,27.96
2019-03-24T19:28:55.446Z,27.98
2019-03-24T19:31:30.256Z,27.96
2019-03-24T19:34:05.098Z,27.96
2019-03-24T19:36:40.021Z,27.95
2019-03-24T19:39:14.844Z,27.97
2019-03-24T19:41:49.248Z,27.97
2019-03-24T19:44:23.969Z,27.96
2019-03-24T19:46:58.310Z,27.97
2019-03-24T19:49:33.113Z,27.97
2019-03-24T19:52:07.802Z,27.97
2019-03-24T19:54:42.487Z,27.96
2019-03-24T19:57:17.123Z,27.95
2019-03-24T19:59:51.796Z,27.95
2019-03-24T20:02:26.253Z,27.97
2019-03-24T20:05:00.643Z,27.96
2019-03-24T20:07:35.370Z,27.95
2019-03-24T20:10:10.134Z,27.97
2019-03-24T20:12:44.927Z,27.97
2019-03-24T20:15:19.624Z,27.95
2019-03-24T20:17:54.377Z,27.92
2019-03-24T20:20:28.941Z,27.93
2019-03-24T20:23:03.269Z,27.95
2019-03-24T20:25:37.836Z,27.94
2019-03-24T20:28:12.385Z,27.94
2019-03-24T20:30:46.651Z,27.95
2019-03-24T20:33:21.973Z,27.94
2019-03-24T20:35:56.441Z,27.93
2019-03-24T20:38:31.983Z,27.94
2019-03-24T20:41:06.682Z,27.94
2019-03-24T20:43:41.095Z,27.93
2019-03-24T20:46:15.561Z,27.94
2019-03-24T20:48:50.093Z,27.93
2019-03-24T20:51:25.051Z,27.93
2019-03-24T20:53:59.813Z,27.91
2019-03-24T20:56:34.219Z,27.88
2019-03-24T20:59:08.831Z,27.89
2019-03-24T21:01:43.401Z,27.90
2019-03-24T21:04:20.178Z,27.91
2019-03-24T21:06:54.474Z,27.91
2019-03-24T21:09:28.927Z,27.90
2019-03-24T21:12:03.618Z,27.88
2019-03-24T21:14:37.978Z,27.88
2019-03-24T21:17:12.802Z,27.87
2019-03-24T21:19:47.297Z,27.91
2019-03-24T21:22:22.495Z,27.90
2019-03-24T21:24:56.895Z,27.90
2019-03-24T21:27:31.672Z,27.89
2019-03-24T21:30:06.314Z,27.90
2019-03-24T21:32:40.744Z,27.88
2019-03-24T21:35:16.405Z,27.86
2019-03-24T21:37:51.293Z,27.87
2019-03-24T21:40:25.664Z,27.87
2019-03-24T21:43:00.573Z,27.86
2019-03-24T21:45:35.370Z,27.85
2019-03-24T21:48:10.114Z,27.85
2019-03-24T21:50:44.585Z,27.85
2019-03-24T21:53:18.978Z,27.85
2019-03-24T21:55:53.384Z,27.86
2019-03-24T21:58:27.835Z,27.85
2019-03-24T22:01:02.204Z,27.84
2019-03-24T22:03:37.102Z,27.85
2019-03-24T22:06:11.656Z,27.85
2019-03-24T22:08:46.511Z,27.87
2019-03-24T22:11:20.996Z,27.84
2019-03-24T22:13:55.483Z,27.84
2019-03-24T22:16:30.168Z,27.84
2019-03-24T22:19:04.876Z,27.83
2019-03-24T22:21:40.273Z,27.84
2019-03-24T22:24:14.890Z,27.85
2019-03-24T22:26:49.299Z,27.85
2019-03-24T22:29:24.137Z,27.84
2019-03-24T22:31:58.651Z,27.84
2019-03-24T22:34:33.346Z,27.85
2019-03-24T22:37:15.763Z,27.85
2019-03-24T22:39:45.209Z,27.83
2019-03-24T22:42:19.659Z,27.83
2019-03-24T22:44:54.658Z,27.84
2019-03-24T22:47:28.970Z,27.83
2019-03-24T22:50:03.560Z,27.84
2019-03-24T22:52:38.051Z,27.83
2019-03-24T22:55:12.957Z,27.82
2019-03-24T22:57:47.340Z,27.83
2019-03-24T23:00:26.751Z,27.82
2019-03-24T23:03:02.443Z,27.83
2019-03-24T23:05:37.216Z,27.83
2019-03-24T23:08:11.925Z,27.82
2019-03-24T23:10:46.545Z,27.82
2019-03-24T23:13:21.967Z,27.82
2019-03-24T23:15:56.555Z,27.80
2019-03-24T23:18:31.275Z,27.80
2019-03-24T23:21:05.851Z,27.79
2019-03-24T23:23:40.416Z,27.77
2019-03-24T23:26:15.050Z,27.77
2019-03-24T23:28:49.506Z,27.77
2019-03-24T23:31:24.178Z,27.77
2019-03-24T23:33:58.741Z,27.75
2019-03-24T23:36:33.161Z,27.77
2019-03-24T23:39:09.175Z,27.78
2019-03-24T23:41:43.956Z,27.77
2019-03-24T23:44:18.521Z,27.77
2019-03-24T23:46:53.088Z,27.77
2019-03-24T23:49:28.335Z,27.77
2019-03-24T23:52:03.060Z,27.77
2019-03-24T23:54:37.424Z,27.75
2019-03-24T23:57:12.011Z,27.76
2019-03-24T23:59:46.520Z,27.77
